createdAt,value
2018-09-20T00:01:38.676Z,4.08
2018-09-20T00:04:07.484Z,3.60
2018-09-20T00:06:36.324Z,3.90
2018-09-20T00:09:07.581Z,3.77
2018-09-20T00:11:36.344Z,3.63
2018-09-20T00:14:05.099Z,3.87
2018-09-20T00:16:33.810Z,3.35
2018-09-20T00:19:04.292Z,3.37
2018-09-20T00:21:33.227Z,3.37
2018-09-20T00:24:02.684Z,3.25
2018-09-20T00:26:31.435Z,3.50
2018-09-20T00:29:00.215Z,3.77
2018-09-20T00:31:30.838Z,3.22
2018-09-20T00:33:59.828Z,3.20
2018-09-20T00:36:29.170Z,3.35
2018-09-20T00:38:57.779Z,3.85
2018-09-20T00:41:26.359Z,3.17
2018-09-20T00:43:55.032Z,3.35
2018-09-20T00:46:25.350Z,3.65
2018-09-20T00:48:56.380Z,3.33
2018-09-20T00:51:25.235Z,3.20
2018-09-20T00:53:54.222Z,3.50
2018-09-20T00:56:23.010Z,3.22
2018-09-20T00:58:51.603Z,3.40
2018-09-20T01:01:20.250Z,3.27
2018-09-20T01:03:49.314Z,3.47
2018-09-20T01:06:18.411Z,3.42
2018-09-20T01:08:47.122Z,3.55
2018-09-20T01:11:16.137Z,3.50
2018-09-20T01:13:44.897Z,3.27
2018-09-20T01:16:14.546Z,3.22
2018-09-20T01:18:43.325Z,3.25
2018-09-20T01:21:12.015Z,3.22
2018-09-20T01:23:40.629Z,3.50
2018-09-20T01:26:09.654Z,3.33
2018-09-20T01:28:38.347Z,3.60
2018-09-20T01:31:07.364Z,3.27
2018-09-20T01:33:36.499Z,3.33
2018-09-20T01:36:05.880Z,3.50
2018-09-20T01:38:34.518Z,3.67
2018-09-20T01:41:03.960Z,3.00
2018-09-20T01:43:32.874Z,3.60
2018-09-20T01:46:02.588Z,3.50
2018-09-20T01:48:31.398Z,3.30
2018-09-20T01:51:00.201Z,3.58
2018-09-20T01:53:28.893Z,3.42
2018-09-20T01:55:57.537Z,4.10
2018-09-20T01:58:26.575Z,3.55
2018-09-20T02:00:55.246Z,4.87
2018-09-20T02:03:24.626Z,3.90
2018-09-20T02:05:54.363Z,3.33
2018-09-20T02:08:23.145Z,3.65
2018-09-20T02:10:51.878Z,3.50
2018-09-20T02:13:20.801Z,3.30
2018-09-20T02:15:49.726Z,3.05
2018-09-20T02:18:18.448Z,3.55
2018-09-20T02:20:47.201Z,3.30
2018-09-20T02:23:15.984Z,3.75
2018-09-20T02:25:44.681Z,3.55
2018-09-20T02:28:13.946Z,3.15
2018-09-20T02:30:43.495Z,3.75
2018-09-20T02:33:12.610Z,3.52
2018-09-20T02:35:41.418Z,3.90
2018-09-20T02:38:10.215Z,3.08
2018-09-20T02:40:38.901Z,3.52
2018-09-20T02:43:08.648Z,3.27
2018-09-20T02:45:37.929Z,3.33
2018-09-20T02:48:41.323Z,3.95
2018-09-20T02:51:10.031Z,3.30
2018-09-20T02:53:38.744Z,3.77
2018-09-20T02:56:07.611Z,3.60
2018-09-20T02:58:36.599Z,3.30
2018-09-20T03:01:05.233Z,3.37
2018-09-20T03:03:33.978Z,3.40
2018-09-20T03:06:03.285Z,3.70
2018-09-20T03:08:31.922Z,3.00
2018-09-20T03:11:00.566Z,3.62
2018-09-20T03:13:29.242Z,3.25
2018-09-20T03:15:57.915Z,3.50
2018-09-20T03:18:26.657Z,3.45
2018-09-20T03:20:55.510Z,3.15
2018-09-20T03:23:24.265Z,4.53
2018-09-20T03:25:52.880Z,3.60
2018-09-20T03:28:21.768Z,3.92
2018-09-20T03:30:50.740Z,3.72
2018-09-20T03:33:19.530Z,3.47
2018-09-20T03:35:48.159Z,3.98
2018-09-20T03:38:16.948Z,3.70
2018-09-20T03:40:45.596Z,3.58
2018-09-20T03:43:14.290Z,4.35
2018-09-20T03:45:43.274Z,4.28
2018-09-20T03:48:11.920Z,3.77
2018-09-20T03:50:40.847Z,3.70
2018-09-20T03:53:09.494Z,3.47
2018-09-20T03:55:38.319Z,3.72
2018-09-20T03:58:07.024Z,3.52
2018-09-20T04:00:35.755Z,4.00
2018-09-20T04:03:04.596Z,3.52
2018-09-20T04:05:33.581Z,3.87
2018-09-20T04:08:02.814Z,3.60
2018-09-20T04:10:31.411Z,3.98
2018-09-20T04:13:00.126Z,3.70
2018-09-20T04:15:28.977Z,4.03
2018-09-20T04:17:57.568Z,3.45
2018-09-20T04:20:26.487Z,3.50
2018-09-20T04:22:55.099Z,3.80
2018-09-20T04:25:23.841Z,4.03
2018-09-20T04:27:52.403Z,3.83
2018-09-20T04:30:21.105Z,4.37
2018-09-20T04:32:49.757Z,3.77
2018-09-20T04:35:18.461Z,3.95
2018-09-20T04:37:47.161Z,3.95
2018-09-20T04:40:15.873Z,4.12
2018-09-20T04:42:44.567Z,3.85
2018-09-20T04:45:14.440Z,4.30
2018-09-20T04:47:44.024Z,3.97
2018-09-20T04:50:12.747Z,4.05
2018-09-20T04:52:41.485Z,4.03
2018-09-20T04:55:10.202Z,4.05
2018-09-20T04:57:39.128Z,4.20
2018-09-20T05:00:07.870Z,3.77
2018-09-20T05:02:36.540Z,4.20
2018-09-20T05:05:05.339Z,4.22
2018-09-20T05:07:34.109Z,4.65
2018-09-20T05:10:03.389Z,4.10
2018-09-20T05:12:32.108Z,4.12
2018-09-20T05:15:00.818Z,4.10
2018-09-20T05:17:29.503Z,4.20
2018-09-20T05:19:59.448Z,4.25
2018-09-20T05:22:28.113Z,4.47
2018-09-20T05:24:56.884Z,5.12
2018-09-20T05:27:25.535Z,3.98
2018-09-20T05:29:54.322Z,4.00
2018-09-20T05:32:22.995Z,4.15
2018-09-20T05:34:51.753Z,4.53
2018-09-20T05:37:20.572Z,4.30
2018-09-20T05:39:49.264Z,4.10
2018-09-20T05:42:18.083Z,4.50
2018-09-20T05:44:46.729Z,4.53
2018-09-20T05:47:15.368Z,4.72
2018-09-20T05:49:44.149Z,4.78
2018-09-20T05:52:12.897Z,4.70
2018-09-20T05:54:41.686Z,4.47
2018-09-20T05:57:10.324Z,4.62
2018-09-20T05:59:39.007Z,4.17
2018-09-20T06:02:07.744Z,4.33
2018-09-20T06:04:36.454Z,3.95
2018-09-20T06:07:05.281Z,4.50
2018-09-20T06:09:34.120Z,4.55
2018-09-20T06:12:03.880Z,4.10
2018-09-20T06:14:32.543Z,5.40
2018-09-20T06:17:02.661Z,4.12
2018-09-20T06:19:31.282Z,4.33
2018-09-20T06:22:00.116Z,4.37
2018-09-20T06:24:28.986Z,4.42
2018-09-20T06:26:57.678Z,4.65
2018-09-20T06:29:26.664Z,4.50
2018-09-20T06:31:55.977Z,4.80
2018-09-20T06:34:24.607Z,4.45
2018-09-20T06:36:53.511Z,4.45
2018-09-20T06:39:24.069Z,4.22
2018-09-20T06:41:52.768Z,4.37
2018-09-20T06:44:21.484Z,3.85
2018-09-20T06:46:50.484Z,4.53
2018-09-20T06:49:19.215Z,4.22
2018-09-20T06:51:48.145Z,3.70
2018-09-20T06:54:16.903Z,4.22
2018-09-20T06:56:45.738Z,4.25
2018-09-20T06:59:15.795Z,4.28
2018-09-20T07:01:50.021Z,4.83
2018-09-20T07:04:18.842Z,4.97
2018-09-20T07:06:47.528Z,4.28
2018-09-20T07:09:16.224Z,4.33
2018-09-20T07:11:45.043Z,4.27
2018-09-20T07:14:15.067Z,3.90
2018-09-20T07:16:43.873Z,3.40
2018-09-20T07:19:12.645Z,4.00
2018-09-20T07:21:41.330Z,4.10
2018-09-20T07:24:10.458Z,4.08
2018-09-20T07:26:39.420Z,3.90
2018-09-20T07:29:08.174Z,3.75
2018-09-20T07:31:36.820Z,3.67
2018-09-20T07:34:07.189Z,4.17
2018-09-20T07:36:36.097Z,4.05
2018-09-20T07:39:07.833Z,4.17
2018-09-20T07:41:36.908Z,3.67
2018-09-20T07:44:05.703Z,4.12
2018-09-20T07:46:34.354Z,5.75
2018-09-20T07:49:03.597Z,4.20
2018-09-20T07:51:32.327Z,4.47
2018-09-20T07:54:02.096Z,3.83
2018-09-20T07:56:31.029Z,4.60
2018-09-20T07:58:59.587Z,4.55
2018-09-20T08:01:28.283Z,4.30
2018-09-20T08:03:56.832Z,4.00
2018-09-20T08:06:25.573Z,3.87
2018-09-20T08:08:54.333Z,3.67
2018-09-20T08:11:24.078Z,3.90
2018-09-20T08:13:53.447Z,4.10
2018-09-20T08:16:22.200Z,3.95
2018-09-20T08:18:51.704Z,3.42
2018-09-20T08:21:20.307Z,3.95
2018-09-20T08:23:49.097Z,3.47
2018-09-20T08:26:17.855Z,3.72
2018-09-20T08:28:46.779Z,4.42
2018-09-20T08:31:15.347Z,5.72
2018-09-20T08:33:44.321Z,4.37
2018-09-20T08:36:13.084Z,3.72
2018-09-20T08:38:41.953Z,3.83
2018-09-20T08:41:12.460Z,3.50
2018-09-20T08:43:41.232Z,4.30
2018-09-20T08:46:10.080Z,3.80
2018-09-20T08:48:39.815Z,3.83
2018-09-20T08:51:08.595Z,4.12
2018-09-20T08:53:37.274Z,4.07
2018-09-20T08:56:06.306Z,3.72
2018-09-20T08:58:35.343Z,4.03
2018-09-20T09:01:05.896Z,3.95
2018-09-20T09:03:34.539Z,4.00
2018-09-20T09:06:03.955Z,3.72
2018-09-20T09:08:32.841Z,3.80
2018-09-20T09:11:01.498Z,3.90
2018-09-20T09:13:30.327Z,3.83
2018-09-20T09:15:58.975Z,3.70
2018-09-20T09:18:27.683Z,3.47
2018-09-20T09:20:56.516Z,3.40
2018-09-20T09:23:25.469Z,3.87
2018-09-20T09:25:54.256Z,3.60
2018-09-20T09:28:23.117Z,3.45
2018-09-20T09:30:51.976Z,3.90
2018-09-20T09:33:21.341Z,3.67
2018-09-20T09:35:49.954Z,3.17
2018-09-20T09:38:18.777Z,3.87
2018-09-20T09:40:48.063Z,5.17
2018-09-20T09:43:17.182Z,3.90
2018-09-20T09:45:45.915Z,3.77
2018-09-20T09:48:14.497Z,3.12
2018-09-20T09:50:43.502Z,3.40
2018-09-20T09:53:12.236Z,3.70
2018-09-20T09:55:41.119Z,3.50
2018-09-20T09:58:09.972Z,3.20
2018-09-20T10:00:40.625Z,3.47
2018-09-20T10:03:09.308Z,3.75
2018-09-20T10:05:40.440Z,3.13
2018-09-20T10:08:10.171Z,3.12
2018-09-20T10:10:38.928Z,3.02
2018-09-20T10:13:07.739Z,3.17
2018-09-20T10:15:36.448Z,2.90
2018-09-20T10:18:05.416Z,3.02
2018-09-20T10:20:34.014Z,3.40
2018-09-20T10:23:03.294Z,3.30
2018-09-20T10:25:32.064Z,4.40
2018-09-20T10:28:00.981Z,3.55
2018-09-20T10:30:29.668Z,3.47
2018-09-20T10:32:59.325Z,3.22
2018-09-20T10:35:28.143Z,3.70
2018-09-20T10:37:56.948Z,3.22
2018-09-20T10:40:25.636Z,3.37
2018-09-20T10:42:54.235Z,3.17
2018-09-20T10:45:23.028Z,3.90
2018-09-20T10:47:51.608Z,3.67
2018-09-20T10:50:20.324Z,3.47
2018-09-20T10:52:48.887Z,3.50
2018-09-20T10:55:17.569Z,3.50
2018-09-20T10:57:46.594Z,3.40
2018-09-20T11:00:15.298Z,3.80
2018-09-20T11:02:43.975Z,3.87
2018-09-20T11:05:12.795Z,3.42
2018-09-20T11:07:41.731Z,3.90
2018-09-20T11:10:10.591Z,3.87
2018-09-20T11:12:39.537Z,3.80
2018-09-20T11:15:08.264Z,3.50
2018-09-20T11:17:37.028Z,4.00
2018-09-20T11:20:06.721Z,3.62
2018-09-20T11:22:35.568Z,3.40
2018-09-20T11:25:05.218Z,3.45
2018-09-20T11:27:34.093Z,3.40
2018-09-20T11:30:03.796Z,4.03
2018-09-20T11:32:33.627Z,3.70
2018-09-20T11:35:02.979Z,3.80
2018-09-20T11:37:31.908Z,3.87
2018-09-20T11:40:00.736Z,3.92
2018-09-20T11:42:29.463Z,3.95
2018-09-20T11:44:59.239Z,3.62
2018-09-20T11:47:27.843Z,3.83
2018-09-20T11:49:56.611Z,4.12
2018-09-20T11:52:25.586Z,3.87
2018-09-20T11:54:54.303Z,4.03
2018-09-20T11:57:23.183Z,3.55
2018-09-20T11:59:52.152Z,3.50
2018-09-20T12:02:20.983Z,3.85
2018-09-20T12:04:49.752Z,3.20
2018-09-20T12:07:19.000Z,3.50
2018-09-20T12:09:47.711Z,3.65
2018-09-20T12:12:16.421Z,3.62
2018-09-20T12:14:44.994Z,3.47
2018-09-20T12:17:13.746Z,3.40
2018-09-20T12:19:42.585Z,3.80
2018-09-20T12:22:11.360Z,3.47
2018-09-20T12:24:40.428Z,3.50
2018-09-20T12:27:09.408Z,3.55
2018-09-20T12:29:38.302Z,3.37
2018-09-20T12:32:07.313Z,3.37
2018-09-20T12:34:36.454Z,3.10
2018-09-20T12:37:05.486Z,3.52
2018-09-20T12:39:34.290Z,3.42
2018-09-20T12:42:03.831Z,3.25
2018-09-20T12:44:32.823Z,3.53
2018-09-20T12:47:02.732Z,3.10
2018-09-20T12:49:31.986Z,3.50
2018-09-20T12:52:01.388Z,3.58
2018-09-20T12:54:30.419Z,3.37
2018-09-20T12:56:59.437Z,3.47
2018-09-20T12:59:28.254Z,3.50
2018-09-20T13:01:57.160Z,3.40
2018-09-20T13:04:26.591Z,3.00
2018-09-20T13:06:55.258Z,3.10
2018-09-20T13:09:23.966Z,2.75
2018-09-20T13:11:52.711Z,3.33
2018-09-20T13:14:21.481Z,3.30
2018-09-20T13:16:50.444Z,3.00
2018-09-20T13:19:19.226Z,3.05
2018-09-20T13:21:48.220Z,3.00
2018-09-20T13:24:16.910Z,3.08
2018-09-20T13:26:45.642Z,3.50
2018-09-20T13:29:14.397Z,3.12
2018-09-20T13:31:49.906Z,3.35
2018-09-20T13:34:18.829Z,3.55
2018-09-20T13:36:47.537Z,4.30
2018-09-20T13:39:16.205Z,3.77
2018-09-20T13:41:45.057Z,3.55
2018-09-20T13:44:13.747Z,4.25
2018-09-20T13:46:42.521Z,3.40
2018-09-20T13:49:11.424Z,3.70
2018-09-20T13:51:40.205Z,3.62
2018-09-20T13:54:09.073Z,3.92
2018-09-20T13:59:11.426Z,4.05
2018-09-20T14:01:40.290Z,3.58
2018-09-20T14:04:08.949Z,3.90
2018-09-20T14:06:37.636Z,3.83
2018-09-20T14:09:09.753Z,3.75
2018-09-20T14:11:38.952Z,3.35
2018-09-20T14:14:07.882Z,3.85
2018-09-20T14:16:36.617Z,3.80
2018-09-20T14:19:05.592Z,3.40
2018-09-20T14:21:34.214Z,3.50
2018-09-20T14:24:03.378Z,3.52
2018-09-20T14:26:32.073Z,3.33
2018-09-20T14:29:00.943Z,4.00
2018-09-20T14:31:29.957Z,3.30
2018-09-20T14:33:58.724Z,3.17
2018-09-20T14:36:27.579Z,3.50
2018-09-20T14:38:56.374Z,3.50
2018-09-20T14:41:25.358Z,3.37
2018-09-20T14:43:54.255Z,3.92
2018-09-20T14:46:22.970Z,4.47
2018-09-20T14:48:51.611Z,3.15
2018-09-20T14:51:20.317Z,3.10
2018-09-20T14:53:49.183Z,3.00
2018-09-20T14:56:18.049Z,2.92
2018-09-20T14:58:46.814Z,3.00
2018-09-20T15:01:15.755Z,3.20
2018-09-20T15:03:44.417Z,2.83
2018-09-20T15:06:13.168Z,2.77
2018-09-20T15:08:41.759Z,3.00
2018-09-20T15:11:10.488Z,2.67
2018-09-20T15:13:39.365Z,2.87
2018-09-20T15:16:08.236Z,3.00
2018-09-20T15:18:36.993Z,2.80
2018-09-20T15:21:05.662Z,2.90
2018-09-20T15:23:34.357Z,2.70
2018-09-20T15:26:04.367Z,2.85
2018-09-20T15:28:33.154Z,2.67
2018-09-20T15:31:02.723Z,2.92
2018-09-20T15:33:36.676Z,2.75
2018-09-20T15:36:05.502Z,3.05
2018-09-20T15:38:34.378Z,3.17
2018-09-20T15:41:03.866Z,2.80
2018-09-20T15:43:32.674Z,3.22
2018-09-20T15:46:01.881Z,2.83
2018-09-20T15:48:30.695Z,3.50
2018-09-20T15:50:59.515Z,2.92
2018-09-20T15:53:28.386Z,2.42
2018-09-20T15:55:57.128Z,2.92
2018-09-20T15:58:25.868Z,3.12
2018-09-20T16:00:54.841Z,3.05
2018-09-20T16:03:23.812Z,3.10
2018-09-20T16:05:52.753Z,3.05
2018-09-20T16:08:21.528Z,2.98
2018-09-20T16:10:51.027Z,3.30
2018-09-20T16:13:19.867Z,3.17
2018-09-20T16:15:49.172Z,3.40
2018-09-20T16:18:17.907Z,2.87
2018-09-20T16:20:46.512Z,3.00
2018-09-20T16:23:15.136Z,2.95
2018-09-20T16:25:44.141Z,3.00
2018-09-20T16:28:52.482Z,2.90
2018-09-20T16:31:53.199Z,3.10
2018-09-20T16:36:37.768Z,3.33
2018-09-20T16:39:19.978Z,2.98
2018-09-20T16:41:51.826Z,2.80
2018-09-20T16:44:20.545Z,2.90
2018-09-20T16:46:50.282Z,3.10
2018-09-20T16:49:19.014Z,3.00
2018-09-20T16:51:47.825Z,2.80
2018-09-20T16:54:16.561Z,8.23
2018-09-20T16:56:45.308Z,5.03
2018-09-20T16:59:14.149Z,3.72
2018-09-20T17:01:42.880Z,3.20
2018-09-20T17:04:11.806Z,3.10
2018-09-20T17:06:40.569Z,3.17
2018-09-20T17:09:09.886Z,3.22
2018-09-20T17:11:39.032Z,3.00
2018-09-20T17:14:08.112Z,3.10
2018-09-20T17:16:37.094Z,3.10
2018-09-20T17:19:06.614Z,2.85
2018-09-20T17:21:35.607Z,3.67
2018-09-20T17:24:05.078Z,3.33
2018-09-20T17:26:34.563Z,5.27
2018-09-20T17:29:04.425Z,5.05
2018-09-20T17:31:33.674Z,4.30
2018-09-20T17:34:07.553Z,4.20
2018-09-20T17:36:38.550Z,2.95
2018-09-20T17:39:18.253Z,3.45
2018-09-20T17:41:49.977Z,3.40
2018-09-20T17:44:19.248Z,3.55
2018-09-20T17:46:47.968Z,3.70
2018-09-20T17:49:16.702Z,3.37
2018-09-20T17:51:46.034Z,3.55
2018-09-20T17:54:15.342Z,3.47
2018-09-20T17:56:47.693Z,3.60
2018-09-20T17:59:18.928Z,3.52
2018-09-20T18:01:48.774Z,3.95
2018-09-20T18:04:20.332Z,3.30
2018-09-20T18:06:53.630Z,4.00
2018-09-20T18:09:25.304Z,3.55
2018-09-20T18:12:02.092Z,3.77
2018-09-20T18:14:31.117Z,3.85
2018-09-20T18:17:00.742Z,3.80
2018-09-20T18:19:30.278Z,3.83
2018-09-20T18:21:59.985Z,4.00
2018-09-20T18:24:28.733Z,3.72
2018-09-20T18:26:57.572Z,4.22
2018-09-20T18:29:27.194Z,3.95
2018-09-20T18:31:55.974Z,4.05
2018-09-20T18:34:24.864Z,3.65
2018-09-20T18:36:53.942Z,4.05
2018-09-20T18:39:23.841Z,3.75
2018-09-20T18:41:52.653Z,3.95
2018-09-20T18:44:21.326Z,3.95
2018-09-20T18:46:50.272Z,4.08
2018-09-20T18:49:19.049Z,3.67
2018-09-20T18:51:48.047Z,3.58
2018-09-20T18:54:16.984Z,3.62
2018-09-20T18:56:45.758Z,3.93
2018-09-20T18:59:14.410Z,4.12
2018-09-20T19:01:43.281Z,3.70
2018-09-20T19:04:12.221Z,4.05
2018-09-20T19:06:40.881Z,3.52
2018-09-20T19:09:15.692Z,3.80
2018-09-20T19:11:45.560Z,3.80
2018-09-20T19:14:14.353Z,3.98
2018-09-20T19:16:43.197Z,3.77
2018-09-20T19:19:12.132Z,4.15
2018-09-20T19:21:41.353Z,3.77
2018-09-20T19:24:10.688Z,4.15
2018-09-20T19:26:39.451Z,4.00
2018-09-20T19:29:08.324Z,4.00
2018-09-20T19:31:38.136Z,4.45
2018-09-20T19:34:07.261Z,4.28
2018-09-20T19:36:36.643Z,4.50
2018-09-20T19:39:08.562Z,4.20
2018-09-20T19:41:37.377Z,4.37
2018-09-20T19:44:06.775Z,4.78
2018-09-20T19:46:35.665Z,4.65
2018-09-20T19:49:05.121Z,4.78
2018-09-20T19:51:34.166Z,4.58
2018-09-20T19:54:03.466Z,4.70
2018-09-20T19:58:01.642Z,4.08
2018-09-20T20:00:30.737Z,4.28
2018-09-20T20:02:59.659Z,4.45
2018-09-20T20:05:28.545Z,4.85
2018-09-20T20:07:57.514Z,3.95
2018-09-20T20:10:26.600Z,4.72
2018-09-20T20:12:55.455Z,4.90
2018-09-20T20:15:24.456Z,4.62
2018-09-20T20:17:54.045Z,4.65
2018-09-20T20:20:23.574Z,4.47
2018-09-20T20:22:52.897Z,4.90
2018-09-20T20:25:21.730Z,4.60
2018-09-20T20:27:50.817Z,4.47
2018-09-20T20:30:19.864Z,4.33
2018-09-20T20:32:48.844Z,4.35
2018-09-20T20:35:17.979Z,4.47
2018-09-20T20:37:46.672Z,4.58
2018-09-20T20:40:15.806Z,4.62
2018-09-20T20:42:45.431Z,4.33
2018-09-20T20:45:14.260Z,4.90
2018-09-20T20:47:43.174Z,4.20
2018-09-20T20:50:12.105Z,4.53
2018-09-20T20:52:41.217Z,4.47
2018-09-20T20:55:11.233Z,4.50
2018-09-20T20:57:40.052Z,4.28
2018-09-20T21:00:09.135Z,4.05
2018-09-20T21:02:37.951Z,3.72
2018-09-20T21:05:07.361Z,3.75
2018-09-20T21:07:36.317Z,3.65
2018-09-20T21:10:05.085Z,3.75
2018-09-20T21:12:33.872Z,3.47
2018-09-20T21:15:02.551Z,3.60
2018-09-20T21:17:31.347Z,4.17
2018-09-20T21:20:00.078Z,3.80
2018-09-20T21:22:28.657Z,3.55
2018-09-20T21:24:57.389Z,3.70
2018-09-20T21:27:26.055Z,3.55
2018-09-20T21:29:54.758Z,3.65
2018-09-20T21:32:23.677Z,3.42
2018-09-20T21:34:52.436Z,3.52
2018-09-20T21:37:21.267Z,3.90
2018-09-20T21:39:50.108Z,3.37
2018-09-20T21:42:18.843Z,3.62
2018-09-20T21:44:47.543Z,3.42
2018-09-20T21:47:16.647Z,3.22
2018-09-20T21:49:45.461Z,3.45
2018-09-20T21:52:14.725Z,3.60
2018-09-20T21:54:43.430Z,3.40
2018-09-20T21:57:12.232Z,3.33
2018-09-20T21:59:41.083Z,3.77
2018-09-20T22:02:09.980Z,3.75
2018-09-20T22:04:38.865Z,3.87
2018-09-20T22:07:07.660Z,3.42
2018-09-20T22:09:36.939Z,3.10
2018-09-20T22:12:05.664Z,3.10
2018-09-20T22:14:34.308Z,3.30
2018-09-20T22:17:04.020Z,3.58
2018-09-20T22:19:32.788Z,3.42
2018-09-20T22:22:02.494Z,3.08
2018-09-20T22:24:31.885Z,3.45
2018-09-20T22:27:00.874Z,3.47
2018-09-20T22:29:29.617Z,3.58
2018-09-20T22:31:59.056Z,3.27
2018-09-20T22:34:27.919Z,3.77
2018-09-20T22:36:56.685Z,3.40
2018-09-20T22:39:25.490Z,3.62
2018-09-20T22:41:54.245Z,3.40
2018-09-20T22:44:23.480Z,3.35
2018-09-20T22:46:52.095Z,3.15
2018-09-20T22:49:21.282Z,3.98
2018-09-20T22:51:49.974Z,4.00
2018-09-20T22:54:18.539Z,3.58
2018-09-20T22:56:47.400Z,3.58
2018-09-20T22:59:16.191Z,3.80
2018-09-20T23:01:44.987Z,3.72
2018-09-20T23:04:13.736Z,3.62
2018-09-20T23:06:42.359Z,3.98
2018-09-20T23:09:11.608Z,3.67
2018-09-20T23:11:41.136Z,3.57
2018-09-20T23:14:11.035Z,4.17
2018-09-20T23:16:39.857Z,3.72
2018-09-20T23:19:08.929Z,3.95
2018-09-20T23:21:37.616Z,3.40
2018-09-20T23:24:06.443Z,3.87
2018-09-20T23:26:35.209Z,3.90
2018-09-20T23:29:05.092Z,4.03
2018-09-20T23:31:33.775Z,4.40
2018-09-20T23:34:02.797Z,3.70
2018-09-20T23:36:31.468Z,3.85
2018-09-20T23:39:00.566Z,3.42
2018-09-20T23:41:29.436Z,3.77
2018-09-20T23:43:58.353Z,3.35
2018-09-20T23:46:27.119Z,3.83
2018-09-20T23:48:55.930Z,3.70
2018-09-20T23:51:24.636Z,3.85
2018-09-20T23:53:53.290Z,3.72
2018-09-20T23:56:22.184Z,3.98
2018-09-20T23:58:50.888Z,4.10
